This is the latest recevied weather packets stored in our database for station/object SR6WXJG. If no packets are shown the sender has not sent any weather packets the latest 10 day(s).
| Time | Temp. | Humidity | Pressure | Rain* | Wind** | Luminosity | Snow |
|---|---|---|---|---|---|---|---|
| 1777144516 | 13.89° C | 40% | 1014 hPa | 0 mm | - | - | - |
| 1777143616 | 13.89° C | 51% | 1014 hPa | 0 mm | - | - | - |
| 1777142715 | 13.89° C | 51% | 1015 hPa | 0 mm | - | - | - |
| 1777141815 | 13.89° C | 52% | 1015 hPa | 0 mm | - | - | - |
| 1777140915 | 15.56° C | 41% | 1014 hPa | 0 mm | - | - | - |
| 1777140014 | 15.56° C | 51% | 1014 hPa | 0 mm | - | - | - |
| 1777139114 | 15.56° C | 50% | 1014 hPa | 0 mm | - | - | - |
| 1777138214 | 15.56° C | 52% | 1014 hPa | 0 mm | - | - | - |
| 1777137313 | 17.78° C | 34% | 1013 hPa | 0 mm | - | - | - |
| 1777136413 | 17.78° C | 43% | 1013 hPa | 0 mm | - | - | - |
| 1777135512 | 17.78° C | 42% | 1013 hPa | 0 mm | - | - | - |
| 1777134612 | 17.78° C | 41% | 1013 hPa | 0 mm | - | - | - |
| 1777133712 | 18.89° C | 30% | 1013 hPa | 0 mm | - | - | - |
| 1777132811 | 18.89° C | 38% | 1013 hPa | 0 mm | - | - | - |
| 1777131911 | 18.89° C | 36% | 1013 hPa | 0 mm | - | - | - |
| 1777131011 | 19.44° C | 35% | 1013 hPa | 0 mm | - | - | - |
| 1777130111 | 20° C | 27% | 1013 hPa | 0 mm | - | - | - |
| 1777129210 | 19.44° C | 34% | 1013 hPa | 0 mm | - | - | - |
| 1777128310 | 19.44° C | 34% | 1013 hPa | 0 mm | - | - | - |
| 1777127409 | 20° C | 34% | 1013 hPa | 0 mm | - | - | - |
| 1777126509 | 19.44° C | 27% | 1014 hPa | 0 mm | - | - | - |
| 1777125609 | 19.44° C | 31% | 1014 hPa | 0 mm | - | - | - |
| 1777124708 | 19.44° C | 32% | 1014 hPa | 0 mm | - | - | - |
| 1777123808 | 19.44° C | 32% | 1014 hPa | 0 mm | - | - | - |
| 1777122908 | 19.44° C | 28% | 1014 hPa | 0 mm | - | - | - |
* Rain latest hour (hover to see other rain measurements)
** Current wind speed in m/s (hover to see current wind gust speed)